createdAt,value
2022-09-12T00:01:21.533Z,12.34
2022-09-12T00:03:56.100Z,12.31
2022-09-12T00:06:32.695Z,12.11
2022-09-12T00:09:10.317Z,12.01
2022-09-12T00:11:40.328Z,12.15
2022-09-12T00:14:09.473Z,12.30
2022-09-12T00:16:37.820Z,12.38
2022-09-12T00:19:06.228Z,12.28
2022-09-12T00:21:35.222Z,12.47
2022-09-12T00:24:03.295Z,12.41
2022-09-12T00:26:31.363Z,12.42
2022-09-12T00:28:59.122Z,12.41
2022-09-12T00:31:27.381Z,12.72
2022-09-12T00:33:57.528Z,12.78
2022-09-12T00:36:25.698Z,12.72
2022-09-12T00:38:54.799Z,12.77
2022-09-12T00:41:37.709Z,12.74
2022-09-12T00:44:23.985Z,12.48
2022-09-12T00:47:06.204Z,12.57
2022-09-12T00:49:49.129Z,12.33
2022-09-12T00:52:31.120Z,12.61
2022-09-12T00:55:09.737Z,12.62
2022-09-12T00:57:52.762Z,12.62
2022-09-12T01:00:23.045Z,12.66
2022-09-12T01:02:54.667Z,12.73
2022-09-12T01:05:23.625Z,12.80
2022-09-12T01:07:52.105Z,12.71
2022-09-12T01:10:20.790Z,12.74
2022-09-12T01:12:48.864Z,12.60
2022-09-12T01:15:16.728Z,12.45
2022-09-12T01:18:16.642Z,12.50
2022-09-12T01:21:20.555Z,12.20
2022-09-12T01:24:09.308Z,12.18
2022-09-12T01:27:19.364Z,12.48
2022-09-12T01:30:27.379Z,12.21
2022-09-12T01:33:21.761Z,12.31
2022-09-12T01:36:04.783Z,12.19
2022-09-12T01:38:59.576Z,12.22
2022-09-12T01:41:56.215Z,12.10
2022-09-12T01:44:30.954Z,12.31
2022-09-12T01:47:29.938Z,12.47
2022-09-12T01:50:07.045Z,12.46
2022-09-12T01:53:01.384Z,12.40
2022-09-12T01:55:46.680Z,12.51
2022-09-12T01:58:43.728Z,12.19
2022-09-12T02:01:23.244Z,12.28
2022-09-12T02:04:01.476Z,12.19
2022-09-12T02:06:40.503Z,12.47
2022-09-12T02:09:23.627Z,12.49
2022-09-12T02:11:54.092Z,12.66
2022-09-12T02:14:25.027Z,12.63
2022-09-12T02:17:15.017Z,12.62
2022-09-12T02:19:51.452Z,12.73
2022-09-12T02:22:21.172Z,12.77
2022-09-12T02:24:52.451Z,12.57
2022-09-12T02:27:40.610Z,12.38
2022-09-12T02:30:09.631Z,12.41
2022-09-12T02:33:07.371Z,12.39
2022-09-12T02:35:48.063Z,12.52
2022-09-12T02:38:36.978Z,12.80
2022-09-12T02:41:04.823Z,12.84
2022-09-12T02:43:32.586Z,12.69
2022-09-12T02:46:00.634Z,12.41
2022-09-12T02:48:31.808Z,12.43
2022-09-12T02:50:59.633Z,12.47
2022-09-12T02:53:27.397Z,12.38
2022-09-12T02:55:55.360Z,12.40
2022-09-12T02:58:27.046Z,12.44
2022-09-12T03:01:08.020Z,12.45
2022-09-12T03:03:44.295Z,12.41
2022-09-12T03:06:21.921Z,12.37
2022-09-12T03:09:18.217Z,12.33
2022-09-12T03:12:34.138Z,12.39
2022-09-12T03:15:18.112Z,12.29
2022-09-12T03:18:07.997Z,12.28
2022-09-12T03:20:53.922Z,12.40
2022-09-12T03:23:39.260Z,12.53
2022-09-12T03:26:17.261Z,12.49
2022-09-12T03:28:45.532Z,12.69
2022-09-12T03:31:18.215Z,12.80
2022-09-12T03:33:46.284Z,12.73
2022-09-12T03:36:21.543Z,12.54
2022-09-12T03:38:49.427Z,12.44
2022-09-12T03:41:17.153Z,12.33
2022-09-12T03:43:45.728Z,12.28
2022-09-12T03:46:13.908Z,12.35
2022-09-12T03:48:41.988Z,12.56
2022-09-12T03:51:10.468Z,12.57
2022-09-12T03:53:38.426Z,12.38
2022-09-12T03:56:08.623Z,12.37
2022-09-12T03:58:37.067Z,12.24
2022-09-12T04:01:16.309Z,12.36
2022-09-12T04:03:46.282Z,12.22
2022-09-12T04:06:15.777Z,12.40
2022-09-12T04:08:44.210Z,12.39
2022-09-12T04:11:13.933Z,12.41
2022-09-12T04:13:43.369Z,12.49
2022-09-12T04:16:12.012Z,12.55
2022-09-12T04:18:40.225Z,12.52
2022-09-12T04:21:11.785Z,12.70
2022-09-12T04:23:39.543Z,12.85
2022-09-12T04:26:08.348Z,12.83
2022-09-12T04:28:37.730Z,12.80
2022-09-12T04:31:12.762Z,12.83
2022-09-12T04:33:40.473Z,12.72
2022-09-12T04:36:16.867Z,12.74
2022-09-12T04:38:46.389Z,12.73
2022-09-12T04:41:19.427Z,12.49
2022-09-12T04:43:47.900Z,12.48
2022-09-12T04:46:17.473Z,12.65
2022-09-12T04:48:45.230Z,12.65
2022-09-12T04:51:16.282Z,12.71
2022-09-12T04:53:47.311Z,12.68
2022-09-12T04:56:15.103Z,12.63
2022-09-12T04:58:42.891Z,12.76
2022-09-12T05:01:16.106Z,12.86
2022-09-12T05:03:45.593Z,12.78
2022-09-12T05:06:16.077Z,12.71
2022-09-12T05:08:44.107Z,12.78
2022-09-12T05:11:14.831Z,12.78
2022-09-12T05:13:43.051Z,12.68
2022-09-12T05:16:13.346Z,12.65
2022-09-12T05:18:41.511Z,12.87
2022-09-12T05:21:11.550Z,12.62
2022-09-12T05:23:39.452Z,12.56
2022-09-12T05:26:07.997Z,12.78
2022-09-12T05:28:37.793Z,12.97
2022-09-12T05:31:19.351Z,13.00
2022-09-12T05:33:49.201Z,12.86
2022-09-12T05:36:19.659Z,12.75
2022-09-12T05:38:47.549Z,12.66
2022-09-12T05:41:24.876Z,12.83
2022-09-12T05:43:58.276Z,12.78
2022-09-12T05:46:28.604Z,12.67
2022-09-12T05:48:57.295Z,12.65
2022-09-12T05:51:28.238Z,12.64
2022-09-12T05:53:58.056Z,12.54
2022-09-12T05:56:28.154Z,12.64
2022-09-12T05:58:59.395Z,12.45
2022-09-12T06:01:28.347Z,12.70
2022-09-12T06:04:02.304Z,12.75
2022-09-12T06:06:31.573Z,12.79
2022-09-12T06:09:01.537Z,12.77
2022-09-12T06:11:32.245Z,12.90
2022-09-12T06:14:00.420Z,12.88
2022-09-12T06:16:30.576Z,12.77
2022-09-12T06:19:04.859Z,12.86
2022-09-12T06:21:34.676Z,12.85
2022-09-12T06:24:02.842Z,12.96
2022-09-12T06:26:30.912Z,12.91
2022-09-12T06:29:00.691Z,12.78
2022-09-12T06:31:34.067Z,12.89
2022-09-12T06:34:06.925Z,12.87
2022-09-12T06:36:37.836Z,12.71
2022-09-12T06:39:17.816Z,12.64
2022-09-12T06:41:45.823Z,12.61
2022-09-12T06:44:21.196Z,12.48
2022-09-12T06:46:49.173Z,12.58
2022-09-12T06:49:17.823Z,12.67
2022-09-12T06:51:45.782Z,12.66
2022-09-12T06:54:14.692Z,12.84
2022-09-12T06:56:42.880Z,13.05
2022-09-12T06:59:10.649Z,13.00
2022-09-12T07:01:38.621Z,12.99
2022-09-12T07:04:06.511Z,13.07
2022-09-12T07:06:41.922Z,13.10
2022-09-12T07:09:13.418Z,12.97
2022-09-12T07:11:41.961Z,12.96
2022-09-12T07:14:12.193Z,12.95
2022-09-12T07:16:40.203Z,13.05
2022-09-12T07:19:08.826Z,13.10
2022-09-12T07:21:40.214Z,12.98
2022-09-12T07:24:10.393Z,12.91
2022-09-12T07:26:40.678Z,12.69
2022-09-12T07:32:02.562Z,12.69
2022-09-12T07:34:30.427Z,12.76
2022-09-12T07:36:58.904Z,12.83
2022-09-12T07:39:26.680Z,12.90
2022-09-12T07:41:55.050Z,12.81
2022-09-12T07:44:23.116Z,12.45
2022-09-12T07:46:51.086Z,12.56
2022-09-12T07:49:18.949Z,12.49
2022-09-12T07:51:46.694Z,12.61
2022-09-12T07:54:14.887Z,12.82
2022-09-12T07:56:42.610Z,12.89
2022-09-12T07:59:10.413Z,12.63
2022-09-12T08:01:40.001Z,12.71
2022-09-12T08:04:08.396Z,12.68
2022-09-12T08:06:37.185Z,12.68
2022-09-12T08:09:05.769Z,12.77
2022-09-12T08:11:33.940Z,12.65
2022-09-12T08:14:03.190Z,12.79
2022-09-12T08:16:32.029Z,13.01
2022-09-12T08:19:02.041Z,13.07
2022-09-12T08:21:31.598Z,13.01
2022-09-12T08:24:02.335Z,12.90
2022-09-12T08:26:31.888Z,12.77
2022-09-12T08:28:59.853Z,12.93
2022-09-12T08:31:28.231Z,12.91
2022-09-12T08:33:56.816Z,12.95
2022-09-12T08:36:27.354Z,12.97
2022-09-12T08:38:59.920Z,13.03
2022-09-12T08:41:48.672Z,13.01
2022-09-12T08:45:01.397Z,13.03
2022-09-12T08:47:33.629Z,13.13
2022-09-12T08:50:11.068Z,13.30
2022-09-12T08:53:05.024Z,13.36
2022-09-12T08:55:51.476Z,13.42
2022-09-12T08:58:22.646Z,13.32
2022-09-12T09:01:32.273Z,13.17
2022-09-12T09:04:29.535Z,13.19
2022-09-12T09:07:08.208Z,13.18
2022-09-12T09:09:52.841Z,13.01
2022-09-12T09:12:26.910Z,13.14
2022-09-12T09:15:12.332Z,13.01
2022-09-12T09:17:50.228Z,13.09
2022-09-12T09:20:43.819Z,13.11
2022-09-12T09:23:31.938Z,13.14
2022-09-12T09:26:26.602Z,13.34
2022-09-12T09:29:02.692Z,13.42
2022-09-12T09:31:38.279Z,13.31
2022-09-12T09:34:25.155Z,13.18
2022-09-12T09:37:09.261Z,13.35
2022-09-12T09:39:56.190Z,13.47
2022-09-12T09:43:02.070Z,13.45
2022-09-12T09:45:29.940Z,13.46
2022-09-12T09:48:04.454Z,13.44
2022-09-12T09:50:32.221Z,13.45
2022-09-12T09:53:00.496Z,13.52
2022-09-12T09:55:32.777Z,13.47
2022-09-12T09:58:00.628Z,13.59
2022-09-12T10:00:33.169Z,13.49
2022-09-12T10:03:21.758Z,13.54
2022-09-12T10:05:54.126Z,13.67
2022-09-12T10:08:27.712Z,13.80
2022-09-12T10:11:02.036Z,13.86
2022-09-12T10:13:38.030Z,13.80
2022-09-12T10:16:18.956Z,13.98
2022-09-12T10:18:46.928Z,14.06
2022-09-12T10:21:30.445Z,14.14
2022-09-12T10:24:26.179Z,14.23
2022-09-12T10:26:58.868Z,14.05
2022-09-12T10:29:28.822Z,13.82
2022-09-12T10:31:59.765Z,13.91
2022-09-12T10:34:38.353Z,14.00
2022-09-12T10:37:28.202Z,14.05
2022-09-12T10:39:57.416Z,14.42
2022-09-12T10:42:56.867Z,14.41
2022-09-12T10:45:32.850Z,14.19
2022-09-12T10:48:07.330Z,14.12
2022-09-12T10:50:41.515Z,14.25
2022-09-12T10:53:41.389Z,14.17
2022-09-12T10:56:14.930Z,14.13
2022-09-12T10:58:57.831Z,14.39
2022-09-12T11:01:32.232Z,14.47
2022-09-12T11:04:42.088Z,14.46
2022-09-12T11:07:24.414Z,14.33
2022-09-12T11:10:36.747Z,14.10
2022-09-12T11:13:37.641Z,14.07
2022-09-12T11:16:23.155Z,14.09
2022-09-12T11:19:30.334Z,14.01
2022-09-12T11:22:36.537Z,14.07
2022-09-12T11:25:31.417Z,14.13
2022-09-12T11:28:31.298Z,14.22
2022-09-12T11:31:18.712Z,14.31
2022-09-12T11:33:50.175Z,14.53
2022-09-12T11:36:42.462Z,14.82
2022-09-12T11:39:37.375Z,14.68
2022-09-12T11:42:05.723Z,14.72
2022-09-12T11:44:51.502Z,14.69
2022-09-12T11:47:21.009Z,14.72
2022-09-12T11:49:52.205Z,14.80
2022-09-12T11:52:24.170Z,14.59
2022-09-12T11:54:58.553Z,14.42
2022-09-12T11:57:55.168Z,14.35
2022-09-12T12:00:33.372Z,14.25
2022-09-12T12:03:06.517Z,14.19
2022-09-12T12:06:01.424Z,14.23
2022-09-12T12:08:30.135Z,14.16
2022-09-12T12:11:02.885Z,14.17
2022-09-12T12:13:44.779Z,14.10
2022-09-12T12:16:16.389Z,14.14
2022-09-12T12:18:44.206Z,13.92
2022-09-12T12:21:44.051Z,13.85
2022-09-12T12:24:15.478Z,14.01
2022-09-12T12:27:03.536Z,14.11
2022-09-12T12:29:41.500Z,14.16
2022-09-12T12:32:10.835Z,14.42
2022-09-12T12:34:40.237Z,14.69
2022-09-12T12:37:21.155Z,14.66
2022-09-12T12:39:52.706Z,14.56
2022-09-12T12:42:33.328Z,14.66
2022-09-12T12:45:10.407Z,14.75
2022-09-12T12:47:38.274Z,14.84
2022-09-12T12:50:23.960Z,14.91
2022-09-12T12:53:00.610Z,14.89
2022-09-12T12:55:41.209Z,14.97
2022-09-12T12:58:31.845Z,15.00
2022-09-12T13:01:14.578Z,14.87
2022-09-12T13:04:04.321Z,14.93
2022-09-12T13:06:37.723Z,15.03
2022-09-12T13:09:09.261Z,15.07
2022-09-12T13:11:38.836Z,15.13
2022-09-12T13:14:28.394Z,14.98
2022-09-12T13:16:59.550Z,14.66
2022-09-12T13:19:32.679Z,14.72
2022-09-12T13:22:01.866Z,14.54
2022-09-12T13:24:29.846Z,14.65
2022-09-12T13:26:58.080Z,14.58
2022-09-12T13:29:27.591Z,14.59
2022-09-12T13:31:58.467Z,14.66
2022-09-12T13:34:37.914Z,14.86
2022-09-12T13:37:49.719Z,14.91
2022-09-12T13:40:53.664Z,14.88
2022-09-12T13:43:29.529Z,14.63
2022-09-12T13:45:57.442Z,14.52
2022-09-12T13:48:25.400Z,14.66
2022-09-12T13:51:00.435Z,14.64
2022-09-12T13:53:40.685Z,14.86
2022-09-12T13:56:08.506Z,14.80
2022-09-12T13:58:36.421Z,14.81
2022-09-12T14:01:10.593Z,14.77
2022-09-12T14:04:06.918Z,14.85
2022-09-12T14:06:51.946Z,14.98
2022-09-12T14:09:35.088Z,15.01
2022-09-12T14:12:03.590Z,14.97
2022-09-12T14:14:36.625Z,14.82
2022-09-12T14:17:40.309Z,14.99
2022-09-12T14:20:18.696Z,14.81
2022-09-12T14:22:50.544Z,14.84
2022-09-12T14:25:22.047Z,14.76
2022-09-12T14:27:54.896Z,14.89
2022-09-12T14:30:32.617Z,14.81
2022-09-12T14:33:12.746Z,15.00
2022-09-12T14:35:51.256Z,14.97
2022-09-12T14:38:25.007Z,14.64
2022-09-12T14:41:00.879Z,14.84
2022-09-12T14:43:36.763Z,14.83
2022-09-12T14:46:15.954Z,14.93
2022-09-12T14:48:48.768Z,15.14
2022-09-12T14:51:20.322Z,15.03
2022-09-12T14:53:49.251Z,15.21
2022-09-12T14:56:17.189Z,15.19
2022-09-12T14:58:44.975Z,15.18
2022-09-12T15:01:12.690Z,15.15
2022-09-12T15:03:49.335Z,15.13
2022-09-12T15:06:45.311Z,15.19
2022-09-12T15:09:13.481Z,15.04
2022-09-12T15:11:41.346Z,15.16
2022-09-12T15:14:13.428Z,15.29
2022-09-12T15:16:41.534Z,15.26
2022-09-12T15:19:09.826Z,15.24
2022-09-12T15:21:37.604Z,15.22
2022-09-12T15:24:05.691Z,15.30
2022-09-12T15:26:33.456Z,15.31
2022-09-12T15:29:01.731Z,15.41
2022-09-12T15:31:31.362Z,15.29
2022-09-12T15:34:01.055Z,15.27
2022-09-12T15:36:29.174Z,15.28
2022-09-12T15:38:57.392Z,15.19
2022-09-12T15:41:37.105Z,15.10
2022-09-12T15:44:10.602Z,15.04
2022-09-12T15:46:38.742Z,14.91
2022-09-12T15:49:07.358Z,14.69
2022-09-12T15:51:35.255Z,14.77
2022-09-12T15:54:04.451Z,15.02
2022-09-12T15:56:32.521Z,14.82
2022-09-12T15:59:00.527Z,14.81
2022-09-12T16:01:29.285Z,14.85
2022-09-12T16:03:57.862Z,14.98
2022-09-12T16:06:27.467Z,14.94
2022-09-12T16:08:55.434Z,14.96
2022-09-12T16:11:26.099Z,14.81
2022-09-12T16:13:54.774Z,14.84
2022-09-12T16:16:22.768Z,14.82
2022-09-12T16:18:50.790Z,14.74
2022-09-12T16:21:18.707Z,14.73
2022-09-12T16:23:48.678Z,14.76
2022-09-12T16:26:16.577Z,14.81
2022-09-12T16:28:44.882Z,14.82
2022-09-12T16:31:13.937Z,14.72
2022-09-12T16:33:44.205Z,14.61
2022-09-12T16:36:14.559Z,14.51
2022-09-12T16:38:49.821Z,14.60
2022-09-12T16:41:20.349Z,14.53
2022-09-12T16:43:48.495Z,14.56
2022-09-12T16:46:19.185Z,14.44
2022-09-12T16:48:52.120Z,14.28
2022-09-12T16:51:24.309Z,14.37
2022-09-12T16:53:52.445Z,14.40
2022-09-12T16:56:20.372Z,14.56
2022-09-12T16:58:48.296Z,14.71
2022-09-12T17:01:19.053Z,14.84
2022-09-12T17:03:47.323Z,14.99
2022-09-12T17:06:18.286Z,14.69
2022-09-12T17:08:49.385Z,14.59
2022-09-12T17:11:23.153Z,14.84
2022-09-12T17:14:04.401Z,15.03
2022-09-12T17:16:36.729Z,14.95
2022-09-12T17:19:05.921Z,14.97
2022-09-12T17:21:34.097Z,14.94
2022-09-12T17:24:02.674Z,15.02
2022-09-12T17:26:30.643Z,14.94
2022-09-12T17:28:58.609Z,14.86
2022-09-12T17:31:26.999Z,14.82
2022-09-12T17:33:58.847Z,14.86
2022-09-12T17:36:27.373Z,14.74
2022-09-12T17:38:55.402Z,14.96
2022-09-12T17:41:26.180Z,15.07
2022-09-12T17:43:57.490Z,15.17
2022-09-12T17:46:37.379Z,15.23
2022-09-12T17:49:12.421Z,15.25
2022-09-12T17:51:40.838Z,15.22
2022-09-12T17:54:13.219Z,15.02
2022-09-12T17:56:41.136Z,14.88
2022-09-12T17:59:13.577Z,14.73
2022-09-12T18:02:00.364Z,14.68
2022-09-12T18:04:28.736Z,14.77
2022-09-12T18:06:57.903Z,14.66
2022-09-12T18:09:26.414Z,14.61
2022-09-12T18:11:54.586Z,14.49
2022-09-12T18:14:23.168Z,14.67
2022-09-12T18:16:52.370Z,14.71
2022-09-12T18:19:20.538Z,14.65
2022-09-12T18:21:48.609Z,14.62
2022-09-12T18:24:16.579Z,14.85
2022-09-12T18:26:45.274Z,14.87
2022-09-12T18:29:16.936Z,14.68
2022-09-12T18:31:45.221Z,14.77
2022-09-12T18:34:17.051Z,14.73
2022-09-12T18:36:47.757Z,14.65
2022-09-12T18:39:16.673Z,14.84
2022-09-12T18:41:44.948Z,14.91
2022-09-12T18:44:13.531Z,14.61
2022-09-12T18:46:41.793Z,14.67
2022-09-12T18:49:10.184Z,14.71
2022-09-12T18:51:40.328Z,14.66
2022-09-12T18:54:12.899Z,14.49
2022-09-12T18:56:44.099Z,14.45
2022-09-12T18:59:15.473Z,14.65
2022-09-12T19:01:44.332Z,14.74
2022-09-12T19:04:13.567Z,14.80
2022-09-12T19:06:43.968Z,14.86
2022-09-12T19:09:14.162Z,14.85
2022-09-12T19:11:49.001Z,14.92
2022-09-12T19:14:19.152Z,14.88
2022-09-12T19:16:47.221Z,14.80
2022-09-12T19:19:15.294Z,14.64
2022-09-12T19:21:43.465Z,14.64
2022-09-12T19:24:11.752Z,14.72
2022-09-12T19:26:40.223Z,14.83
2022-09-12T19:29:08.292Z,14.88
2022-09-12T19:31:36.749Z,14.89
2022-09-12T19:34:07.158Z,14.97
2022-09-12T19:36:50.683Z,14.90
2022-09-12T19:39:20.017Z,14.91
2022-09-12T19:41:48.612Z,14.94
2022-09-12T19:44:19.409Z,14.94
2022-09-12T19:46:47.643Z,14.90
2022-09-12T19:49:15.793Z,14.97
2022-09-12T19:51:44.072Z,14.85
2022-09-12T19:54:12.139Z,14.85
2022-09-12T19:56:40.312Z,14.85
2022-09-12T19:59:08.898Z,14.83
2022-09-12T20:01:37.681Z,14.85
2022-09-12T20:04:06.678Z,14.75
2022-09-12T20:06:35.064Z,14.87
2022-09-12T20:09:03.322Z,14.58
2022-09-12T20:11:31.611Z,14.64
2022-09-12T20:13:59.672Z,14.73
2022-09-12T20:16:29.824Z,14.84
2022-09-12T20:19:00.578Z,14.83
2022-09-12T20:21:32.215Z,14.71
2022-09-12T20:24:07.916Z,14.75
2022-09-12T20:26:36.716Z,14.87
2022-09-12T20:29:05.509Z,14.83
2022-09-12T20:31:33.771Z,14.81
2022-09-12T20:34:02.260Z,14.95
2022-09-12T20:36:30.061Z,15.01
2022-09-12T20:39:00.296Z,14.89
2022-09-12T20:41:30.154Z,14.87
2022-09-12T20:43:58.050Z,14.87
2022-09-12T20:46:26.911Z,14.89
2022-09-12T20:48:55.296Z,14.97
2022-09-12T20:51:24.763Z,15.14
2022-09-12T20:53:54.535Z,15.11
2022-09-12T20:56:23.713Z,14.97
2022-09-12T20:58:51.683Z,14.95
2022-09-12T21:01:20.005Z,14.78
2022-09-12T21:03:48.696Z,14.81
2022-09-12T21:06:19.699Z,14.93
2022-09-12T21:08:47.945Z,15.06
2022-09-12T21:11:16.730Z,15.02
2022-09-12T21:13:44.807Z,15.04
2022-09-12T21:16:18.502Z,15.13
2022-09-12T21:18:46.728Z,15.20
2022-09-12T21:21:15.482Z,15.18
2022-09-12T21:23:43.769Z,15.06
2022-09-12T21:26:12.136Z,14.90
2022-09-12T21:28:39.973Z,14.81
2022-09-12T21:31:08.811Z,14.54
2022-09-12T21:33:37.137Z,14.65
2022-09-12T21:36:06.272Z,14.65
2022-09-12T21:38:34.413Z,14.66
2022-09-12T21:41:10.164Z,14.75
2022-09-12T21:43:38.097Z,14.86
2022-09-12T21:46:06.453Z,14.87
2022-09-12T21:48:34.587Z,14.95
2022-09-12T21:51:02.651Z,15.00
2022-09-12T21:53:31.235Z,15.07
2022-09-12T21:56:07.551Z,15.14
2022-09-12T21:58:36.486Z,15.14
2022-09-12T22:01:06.135Z,15.10
2022-09-12T22:03:34.271Z,15.15
2022-09-12T22:06:04.156Z,15.24
2022-09-12T22:08:33.277Z,15.25
2022-09-12T22:11:04.692Z,15.25
2022-09-12T22:13:32.608Z,15.28
2022-09-12T22:16:03.339Z,15.21
2022-09-12T22:18:35.900Z,15.15
2022-09-12T22:21:13.396Z,15.20
2022-09-12T22:24:00.170Z,15.12
2022-09-12T22:26:29.397Z,15.09
2022-09-12T22:28:57.263Z,15.07
2022-09-12T22:31:27.504Z,15.05
2022-09-12T22:33:57.239Z,14.82
2022-09-12T22:36:28.140Z,14.75
2022-09-12T22:38:59.689Z,14.71
2022-09-12T22:41:27.651Z,14.57
2022-09-12T22:43:56.846Z,14.60
2022-09-12T22:46:24.681Z,14.55
2022-09-12T22:48:52.679Z,14.55
2022-09-12T22:51:20.648Z,14.52
2022-09-12T22:53:48.521Z,14.49
2022-09-12T22:56:16.443Z,14.39
2022-09-12T22:58:44.347Z,14.30
2022-09-12T23:01:12.317Z,14.24
2022-09-12T23:03:40.350Z,14.26
2022-09-12T23:06:10.050Z,14.39
2022-09-12T23:08:38.955Z,14.50
2022-09-12T23:11:09.680Z,14.59
2022-09-12T23:13:38.111Z,14.61
2022-09-12T23:16:08.043Z,14.67
2022-09-12T23:18:36.591Z,14.61
2022-09-12T23:21:09.781Z,14.60
2022-09-12T23:23:38.366Z,14.49
2022-09-12T23:26:14.936Z,14.68
2022-09-12T23:28:52.871Z,14.73
2022-09-12T23:31:22.031Z,14.68
2022-09-12T23:33:53.107Z,14.81
2022-09-12T23:36:21.041Z,14.87
2022-09-12T23:38:48.973Z,14.80
2022-09-12T23:41:18.511Z,14.97
2022-09-12T23:43:47.307Z,15.10
2022-09-12T23:46:15.986Z,15.10
2022-09-12T23:48:44.056Z,15.18
2022-09-12T23:51:12.229Z,15.33
2022-09-12T23:53:40.301Z,15.46
2022-09-12T23:56:08.069Z,15.22
2022-09-12T23:58:36.028Z,15.23
